Time;durP1;ratioP1;P1;durP2;ratioP2;P2;SDS_P1;SDS_P2;PMS_P1;PMS_P2;Temp;Humidity;BMP_temperature;BMP_pressure;BME280_temperature;BME280_humidity;BME280_pressure;Samples;Min_cycle;Max_cycle;Signal;HPM_P1;HPM_P2
2022/03/03 00:00:15;;;;;;;0.88;0.60;;;16.90;64.20;;;;;;5063618;28;20032;-19
2022/03/03 00:02:41;;;;;;;0.50;0.50;;;16.90;64.30;;;;;;5073128;28;20024;-18
2022/03/03 00:05:07;;;;;;;0.50;0.50;;;17.00;64.20;;;;;;5074782;28;20145;-19
2022/03/03 00:07:33;;;;;;;0.77;0.60;;;17.00;64.20;;;;;;5070927;28;20055;-18
2022/03/03 00:09:59;;;;;;;0.57;0.57;;;16.90;64.20;;;;;;5074799;28;20038;-19
2022/03/03 00:12:25;;;;;;;0.47;0.47;;;17.00;64.30;;;;;;5072056;28;20527;-18
2022/03/03 00:14:50;;;;;;;0.50;0.50;;;16.90;64.20;;;;;;5073360;28;20067;-18
2022/03/03 00:17:16;;;;;;;0.40;0.40;;;16.90;64.20;;;;;;5073889;28;20112;-18
2022/03/03 00:19:42;;;;;;;0.50;0.50;;;16.90;64.00;;;;;;5066388;28;20052;-19
2022/03/03 00:22:09;;;;;;;0.70;0.63;;;16.90;64.20;;;;;;5058465;28;20152;-19
2022/03/03 00:24:34;;;;;;;0.70;0.70;;;16.90;64.20;;;;;;5070536;28;20032;-19
2022/03/03 00:27:00;;;;;;;0.57;0.57;;;16.90;64.20;;;;;;5070458;28;20031;-19
2022/03/03 00:29:25;;;;;;;0.50;0.50;;;16.90;64.30;;;;;;5074215;28;20032;-18
2022/03/03 00:31:51;;;;;;;0.55;0.40;;;16.90;64.20;;;;;;5070424;28;20071;-19
2022/03/03 00:34:17;;;;;;;0.55;0.47;;;16.90;64.20;;;;;;5054826;28;20048;-19
2022/03/03 00:36:42;;;;;;;0.70;0.70;;;16.90;64.30;;;;;;5074788;28;20025;-21
2022/03/03 00:39:08;;;;;;;0.43;0.40;;;16.80;64.50;;;;;;5073932;28;20683;-20
2022/03/03 00:41:34;;;;;;;0.52;0.52;;;16.80;64.40;;;;;;5057348;28;20043;-19
2022/03/03 00:43:59;;;;;;;0.60;0.40;;;16.90;64.40;;;;;;5074141;28;20032;-19
2022/03/03 00:46:25;;;;;;;0.55;0.55;;;16.90;64.40;;;;;;5071402;28;20033;-18
2022/03/03 00:48:51;;;;;;;0.40;0.35;;;16.90;64.10;;;;;;5061582;28;20035;-18
2022/03/03 00:51:17;;;;;;;0.63;0.50;;;16.90;65.00;;;;;;5072659;28;20095;-18
2022/03/03 00:53:43;;;;;;;0.50;0.50;;;16.90;64.20;;;;;;5072232;28;20033;-18
2022/03/03 00:56:09;;;;;;;0.43;0.43;;;16.90;64.30;;;;;;5065765;28;20044;-18
2022/03/03 00:58:34;;;;;;;1.52;0.80;;;16.90;64.30;;;;;;5064162;28;20024;-19
2022/03/03 01:01:01;;;;;;;0.50;0.50;;;16.90;64.20;;;;;;5073701;28;20072;-18
2022/03/03 01:03:27;;;;;;;0.43;0.43;;;16.90;64.30;;;;;;5066829;28;20098;-18
2022/03/03 01:05:53;;;;;;;0.70;0.45;;;16.80;64.30;;;;;;5053670;28;20025;-19
2022/03/03 01:08:18;;;;;;;0.40;0.40;;;16.80;64.40;;;;;;5065668;28;20082;-18
2022/03/03 01:10:44;;;;;;;0.38;0.30;;;16.80;64.20;;;;;;5072015;28;20032;-19
2022/03/03 01:13:10;;;;;;;0.50;0.50;;;16.80;64.40;;;;;;5070484;28;20025;-18
2022/03/03 01:15:35;;;;;;;0.70;0.50;;;16.80;64.40;;;;;;5071743;28;20036;-18
2022/03/03 01:18:01;;;;;;;0.50;0.50;;;16.80;64.30;;;;;;5073731;28;20044;-18
2022/03/03 01:20:30;;;;;;;0.55;0.50;;;16.80;64.30;;;;;;5073119;28;20021;-18
2022/03/03 01:22:56;;;;;;;1.92;0.35;;;16.80;65.50;;;;;;5067567;28;20040;-19
2022/03/03 01:25:22;;;;;;;0.75;0.55;;;16.80;64.60;;;;;;5062804;28;20025;-18
2022/03/03 01:27:47;;;;;;;0.30;0.30;;;16.80;64.50;;;;;;5069717;28;20980;-18
2022/03/03 01:30:13;;;;;;;0.60;0.60;;;16.90;65.10;;;;;;5054255;28;20035;-19
2022/03/03 01:32:38;;;;;;;0.30;0.30;;;16.80;64.30;;;;;;5066338;28;20009;-23
2022/03/03 01:35:04;;;;;;;0.55;0.40;;;16.80;64.40;;;;;;5065809;28;20084;-18
2022/03/03 01:37:30;;;;;;;0.63;0.45;;;16.90;64.30;;;;;;5072699;28;20017;-18
2022/03/03 01:39:56;;;;;;;0.70;0.52;;;16.80;64.40;;;;;;5069164;28;20099;-18
2022/03/03 01:42:21;;;;;;;0.40;0.40;;;16.80;64.20;;;;;;5065590;28;20104;-19
2022/03/03 01:44:47;;;;;;;0.60;0.57;;;16.80;64.20;;;;;;5065722;28;20515;-20
2022/03/03 01:47:20;;;;;;;0.50;0.50;;;16.90;64.20;;;;;;5065752;28;20021;-19
2022/03/03 01:49:47;;;;;;;0.52;0.50;;;16.90;64.00;;;;;;5065289;28;20033;-19
2022/03/03 01:52:12;;;;;;;0.50;0.50;;;16.90;64.00;;;;;;5065342;28;20025;-20
2022/03/03 01:54:38;;;;;;;0.55;0.47;;;16.90;64.00;;;;;;5066344;28;20044;-19
2022/03/03 01:57:04;;;;;;;0.40;0.40;;;16.90;64.00;;;;;;5063314;28;20021;-19
2022/03/03 01:59:30;;;;;;;0.60;0.50;;;16.90;63.90;;;;;;5065505;28;20021;-19
2022/03/03 02:01:56;;;;;;;0.40;0.40;;;16.90;64.00;;;;;;5066040;28;20035;-19
2022/03/03 02:04:22;;;;;;;0.60;0.60;;;16.80;64.20;;;;;;5068504;28;20032;-20
2022/03/03 02:06:47;;;;;;;0.40;0.40;;;16.80;64.20;;;;;;5075540;28;20032;-19
2022/03/03 02:09:13;;;;;;;0.95;0.50;;;16.80;64.20;;;;;;5071418;28;20029;-20
2022/03/03 02:11:38;;;;;;;0.30;0.30;;;16.80;64.20;;;;;;5060722;28;20028;-19
2022/03/03 02:14:04;;;;;;;0.50;0.50;;;16.70;64.30;;;;;;5056486;28;20029;-20
2022/03/03 02:16:30;;;;;;;0.40;0.40;;;16.80;64.30;;;;;;5056385;28;20028;-19
2022/03/03 02:18:56;;;;;;;0.85;0.38;;;16.80;64.40;;;;;;5055167;28;20060;-19
2022/03/03 02:21:22;;;;;;;0.50;0.50;;;16.70;64.40;;;;;;5056368;28;20032;-19
2022/03/03 02:23:48;;;;;;;0.30;0.30;;;16.70;64.30;;;;;;5074041;28;20028;-20
2022/03/03 02:26:21;;;;;;;0.47;0.47;;;16.70;64.40;;;;;;5069755;28;20109;-19
2022/03/03 02:28:50;;;;;;;1.23;0.50;;;16.70;64.50;;;;;;5056603;28;20031;-19
2022/03/03 02:31:16;;;;;;;0.50;0.50;;;16.70;64.60;;;;;;5069958;28;20111;-20
2022/03/03 02:33:42;;;;;;;0.50;0.40;;;16.70;64.50;;;;;;5057368;28;20021;-19
2022/03/03 02:36:18;;;;;;;0.50;0.45;;;16.70;64.50;;;;;;5061266;28;20082;-19
2022/03/03 02:38:45;;;;;;;0.40;0.40;;;16.70;64.40;;;;;;5063471;28;20028;-19
2022/03/03 02:41:10;;;;;;;0.32;0.32;;;16.70;64.50;;;;;;5069460;28;20389;-19
2022/03/03 02:43:36;;;;;;;0.50;0.50;;;16.70;64.50;;;;;;5061528;28;20037;-19
2022/03/03 02:46:02;;;;;;;0.40;0.40;;;16.70;64.40;;;;;;5058780;28;20024;-19
2022/03/03 02:48:28;;;;;;;1.40;0.25;;;16.70;64.30;;;;;;5059336;28;20029;-20
2022/03/03 02:50:53;;;;;;;0.30;0.30;;;16.70;64.30;;;;;;5059094;28;20505;-19
2022/03/03 02:53:19;;;;;;;0.40;0.40;;;16.70;64.40;;;;;;5060085;28;20039;-19
2022/03/03 02:55:45;;;;;;;0.40;0.40;;;16.70;64.30;;;;;;5058730;28;20025;-20
2022/03/03 02:58:11;;;;;;;0.40;0.40;;;16.70;64.30;;;;;;5058423;28;20033;-19
2022/03/03 03:00:43;;;;;;;0.30;0.30;;;16.70;64.20;;;;;;5058627;28;20504;-19
2022/03/03 03:03:09;;;;;;;0.30;0.30;;;16.80;64.20;;;;;;5060053;28;20057;-20
2022/03/03 03:05:35;;;;;;;0.60;0.50;;;16.70;64.30;;;;;;5059034;28;20120;-21
2022/03/03 03:08:00;;;;;;;0.45;0.45;;;16.70;64.50;;;;;;5059532;28;20075;-20
2022/03/03 03:10:26;;;;;;;0.45;0.25;;;16.70;64.50;;;;;;5066468;28;20098;-19
2022/03/03 03:12:51;;;;;;;0.30;0.30;;;16.70;64.50;;;;;;5075694;28;20025;-20
2022/03/03 03:15:17;;;;;;;0.30;0.30;;;16.70;64.70;;;;;;5077426;28;20460;-19
2022/03/03 03:17:43;;;;;;;0.20;0.20;;;16.70;64.60;;;;;;5059366;28;20033;-20
2022/03/03 03:20:09;;;;;;;0.30;0.30;;;16.60;64.60;;;;;;5059710;28;20120;-19
2022/03/03 03:22:35;;;;;;;0.30;0.30;;;16.60;64.60;;;;;;5059332;28;20531;-19
2022/03/03 03:25:02;;;;;;;0.20;0.20;;;16.60;64.70;;;;;;5068521;28;20025;-19
2022/03/03 03:27:29;;;;;;;0.38;0.38;;;16.70;64.80;;;;;;5070118;28;20044;-19
2022/03/03 03:29:55;;;;;;;0.20;0.20;;;16.60;64.70;;;;;;5064003;28;20029;-20
2022/03/03 03:32:20;;;;;;;0.20;0.20;;;16.60;64.70;;;;;;5070181;28;20059;-19
2022/03/03 03:34:46;;;;;;;0.88;0.30;;;16.60;64.90;;;;;;5076847;28;20400;-20
2022/03/03 03:37:12;;;;;;;0.30;0.30;;;16.60;64.80;;;;;;5060520;28;20079;-19
2022/03/03 03:39:37;;;;;;;0.35;0.30;;;16.60;64.70;;;;;;5059291;28;20024;-19
2022/03/03 03:42:03;;;;;;;0.30;0.30;;;16.60;64.70;;;;;;5059324;28;20033;-19
2022/03/03 03:44:29;;;;;;;0.75;0.47;;;16.60;64.80;;;;;;5059134;28;20033;-19
2022/03/03 03:46:54;;;;;;;0.20;0.20;;;16.60;64.80;;;;;;5058965;28;20025;-19
2022/03/03 03:49:20;;;;;;;0.15;0.15;;;16.60;64.70;;;;;;5059106;28;20397;-19
2022/03/03 03:51:46;;;;;;;0.43;0.40;;;16.60;64.60;;;;;;5056699;28;20033;-19
2022/03/03 03:54:11;;;;;;;1.20;0.30;;;16.60;64.80;;;;;;5059269;28;20067;-19
2022/03/03 03:56:37;;;;;;;0.30;0.20;;;16.60;64.80;;;;;;5065665;28;20035;-19
2022/03/03 03:59:02;;;;;;;0.40;0.30;;;16.60;64.80;;;;;;5059696;28;20033;-20
2022/03/03 04:01:30;;;;;;;0.30;0.30;;;16.60;64.80;;;;;;5063933;28;20141;-19
2022/03/03 04:03:56;;;;;;;0.30;0.30;;;16.60;65.00;;;;;;5068683;28;20052;-20
2022/03/03 04:06:22;;;;;;;0.32;0.30;;;16.60;64.90;;;;;;5057580;28;20021;-19
2022/03/03 04:08:48;;;;;;;0.50;0.50;;;16.60;64.90;;;;;;5058319;28;20502;-19
2022/03/03 04:11:13;;;;;;;0.20;0.20;;;16.60;64.90;;;;;;5057656;28;20032;-19
2022/03/03 04:13:39;;;;;;;0.35;0.30;;;16.60;64.90;;;;;;5058601;28;20033;-19
2022/03/03 04:16:05;;;;;;;0.30;0.30;;;16.60;64.80;;;;;;5058484;28;20017;-19
2022/03/03 04:18:31;;;;;;;0.20;0.20;;;16.60;64.70;;;;;;5056833;28;20052;-19
2022/03/03 04:20:56;;;;;;;0.20;0.20;;;16.60;64.70;;;;;;5058751;28;20041;-19
2022/03/03 04:23:22;;;;;;;0.20;0.20;;;16.60;64.90;;;;;;5057215;28;20441;-19
2022/03/03 04:25:48;;;;;;;0.40;0.40;;;16.50;64.90;;;;;;5057165;28;20025;-19
2022/03/03 04:28:13;;;;;;;0.30;0.20;;;16.50;64.80;;;;;;5064621;28;20032;-19
2022/03/03 04:30:39;;;;;;;0.30;0.30;;;16.50;64.80;;;;;;5069168;28;20028;-20
2022/03/03 04:33:05;;;;;;;0.75;0.30;;;16.60;64.90;;;;;;5074041;28;20032;-19
2022/03/03 04:35:30;;;;;;;0.30;0.30;;;16.60;64.90;;;;;;5074858;28;20020;-19
2022/03/03 04:37:56;;;;;;;0.30;0.30;;;16.60;64.90;;;;;;5073312;28;20119;-19
2022/03/03 04:40:21;;;;;;;0.20;0.20;;;16.60;64.80;;;;;;5058120;28;20035;-20
2022/03/03 04:42:47;;;;;;;0.30;0.30;;;16.60;64.90;;;;;;5056873;28;20025;-19
2022/03/03 04:45:13;;;;;;;0.30;0.30;;;16.50;64.90;;;;;;5057896;28;20017;-19
2022/03/03 04:47:38;;;;;;;0.10;0.10;;;16.50;64.90;;;;;;5057997;28;20569;-19
2022/03/03 04:50:05;;;;;;;0.30;0.30;;;16.50;64.80;;;;;;5058012;28;20021;-19
2022/03/03 04:52:31;;;;;;;0.30;0.30;;;16.50;65.00;;;;;;5058075;28;20024;-19
2022/03/03 04:54:56;;;;;;;0.17;0.17;;;16.50;64.90;;;;;;5057907;28;20024;-19
2022/03/03 04:57:22;;;;;;;0.20;0.20;;;16.50;65.00;;;;;;5056747;28;20025;-19
2022/03/03 04:59:47;;;;;;;0.90;0.10;;;16.50;64.80;;;;;;5056110;28;20028;-19
2022/03/03 05:02:13;;;;;;;0.25;0.20;;;16.60;64.80;;;;;;5068922;28;20107;-19
2022/03/03 05:04:38;;;;;;;0.20;0.20;;;16.60;64.90;;;;;;5060765;28;20397;-19
2022/03/03 05:07:04;;;;;;;0.35;0.35;;;16.50;64.80;;;;;;5076216;28;20029;-19
2022/03/03 05:09:30;;;;;;;0.20;0.20;;;16.50;64.80;;;;;;5056275;28;20021;-19
2022/03/03 05:11:57;;;;;;;0.20;0.17;;;16.50;64.80;;;;;;5039702;28;20031;-20
2022/03/03 05:14:23;;;;;;;0.30;0.10;;;16.60;64.80;;;;;;5057505;28;20513;-20
2022/03/03 05:16:48;;;;;;;0.20;0.20;;;16.60;65.70;;;;;;5057163;28;20386;-19
2022/03/03 05:19:14;;;;;;;0.10;0.10;;;16.60;64.90;;;;;;5076615;28;20088;-20
2022/03/03 05:21:39;;;;;;;0.20;0.20;;;16.60;64.90;;;;;;5073728;28;20029;-19
2022/03/03 05:24:05;;;;;;;0.35;0.20;;;16.60;65.00;;;;;;5063665;28;20033;-20
2022/03/03 05:26:31;;;;;;;0.30;0.30;;;16.60;65.70;;;;;;5057787;28;20032;-20
2022/03/03 05:28:56;;;;;;;0.40;0.25;;;16.60;64.90;;;;;;5072225;28;20027;-21
2022/03/03 05:31:22;;;;;;;0.20;0.20;;;16.60;65.00;;;;;;5068340;28;20025;-20
2022/03/03 05:33:48;;;;;;;0.40;0.20;;;16.60;65.50;;;;;;5070307;28;20020;-20
2022/03/03 05:36:13;;;;;;;1.55;0.20;;;16.60;64.90;;;;;;5063301;28;20025;-19
2022/03/03 05:38:40;;;;;;;0.30;0.25;;;16.50;64.90;;;;;;5064519;28;20021;-20
2022/03/03 05:41:05;;;;;;;0.22;0.22;;;16.60;65.00;;;;;;5054071;28;20032;-20
2022/03/03 05:43:31;;;;;;;0.20;0.20;;;16.60;64.90;;;;;;5066277;28;20025;-20
2022/03/03 05:45:57;;;;;;;0.20;0.20;;;16.60;64.90;;;;;;5072021;28;20016;-20
2022/03/03 05:48:23;;;;;;;0.38;0.30;;;16.60;65.00;;;;;;5064636;28;20070;-20
2022/03/03 05:50:49;;;;;;;0.30;0.30;;;16.60;65.00;;;;;;5064769;28;20127;-20
2022/03/03 05:53:15;;;;;;;0.30;0.30;;;16.60;64.90;;;;;;5069266;28;20499;-21
2022/03/03 05:55:43;;;;;;;0.10;0.10;;;16.60;64.90;;;;;;5065325;28;20032;-20
2022/03/03 05:58:15;;;;;;;0.22;0.22;;;16.60;64.90;;;;;;5056434;28;20029;-19
2022/03/03 06:00:45;;;;;;;0.20;0.20;;;16.50;65.00;;;;;;5070432;28;20033;-20
2022/03/03 06:03:16;;;;;;;0.47;0.40;;;16.50;65.10;;;;;;5064074;28;20037;-19
2022/03/03 06:05:46;;;;;;;0.20;0.20;;;16.50;65.10;;;;;;5057293;28;20048;-19
2022/03/03 06:08:18;;;;;;;0.20;0.20;;;16.50;65.00;;;;;;5071020;28;20029;-20
2022/03/03 06:10:52;;;;;;;0.45;0.45;;;16.50;64.90;;;;;;5068054;28;20028;-20
2022/03/03 06:13:24;;;;;;;0.20;0.20;;;16.50;64.90;;;;;;5072199;28;20024;-20
2022/03/03 06:15:53;;;;;;;0.30;0.30;;;16.50;65.00;;;;;;5065275;28;20032;-19
2022/03/03 06:18:29;;;;;;;0.30;0.30;;;16.50;65.20;;;;;;5071093;28;20043;-20
2022/03/03 06:20:55;;;;;;;0.63;0.20;;;16.50;65.20;;;;;;5061991;28;20082;-19
2022/03/03 06:23:21;;;;;;;0.20;0.20;;;16.50;65.00;;;;;;5074473;28;20029;-19
2022/03/03 06:25:49;;;;;;;0.30;0.30;;;16.60;65.00;;;;;;5074147;28;20409;-19
2022/03/03 06:28:14;;;;;;;0.20;0.20;;;16.50;64.80;;;;;;5065076;28;20040;-20
2022/03/03 06:30:40;;;;;;;0.40;0.40;;;16.50;65.00;;;;;;5058761;28;20024;-19
2022/03/03 06:33:06;;;;;;;0.40;0.40;;;16.50;65.10;;;;;;5067646;28;20157;-19
2022/03/03 06:35:37;;;;;;;0.30;0.30;;;16.50;65.10;;;;;;5061035;28;20033;-19
2022/03/03 06:38:04;;;;;;;0.20;0.20;;;16.50;64.90;;;;;;5063483;28;20481;-20
2022/03/03 06:40:30;;;;;;;0.32;0.30;;;16.50;65.00;;;;;;5049227;28;20032;-20
2022/03/03 06:43:00;;;;;;;0.30;0.30;;;16.50;65.00;;;;;;5064609;28;20029;-19
2022/03/03 06:45:26;;;;;;;0.32;0.30;;;16.50;65.00;;;;;;5061228;28;20040;-19
2022/03/03 06:47:53;;;;;;;0.30;0.30;;;16.50;65.00;;;;;;5054068;28;20094;-20
2022/03/03 06:50:19;;;;;;;0.45;0.45;;;16.50;65.00;;;;;;5058973;28;20083;-19
2022/03/03 06:52:46;;;;;;;0.40;0.30;;;16.50;65.10;;;;;;5056714;28;20013;-19
2022/03/03 06:55:13;;;;;;;0.30;0.30;;;16.50;65.00;;;;;;5038456;28;20497;-19
2022/03/03 06:57:39;;;;;;;2.75;0.35;;;16.50;65.20;;;;;;4719317;28;10001005;-19
2022/03/03 07:00:05;;;;;;;0.52;0.30;;;16.50;65.40;;;;;;5068221;28;20252;-20
2022/03/03 07:02:31;;;;;;;0.63;0.32;;;16.50;65.10;;;;;;5070790;28;20028;-20
2022/03/03 07:04:57;;;;;;;1.95;0.43;;;16.50;65.40;;;;;;5069041;28;20040;-20
2022/03/03 07:07:22;;;;;;;0.47;0.30;;;16.50;65.30;;;;;;5066492;28;20024;-19
2022/03/03 07:09:48;;;;;;;0.40;0.40;;;16.50;65.30;;;;;;5062153;28;20036;-20
2022/03/03 07:12:16;;;;;;;0.70;0.70;;;16.50;65.40;;;;;;5053774;28;20100;-19
2022/03/03 07:14:41;;;;;;;0.65;0.32;;;16.50;65.50;;;;;;5071276;28;20036;-20
2022/03/03 07:17:12;;;;;;;0.43;0.43;;;16.50;65.50;;;;;;5072387;28;20170;-20
2022/03/03 07:19:38;;;;;;;0.20;0.20;;;16.40;65.50;;;;;;5057780;28;20048;-19
2022/03/03 07:22:19;;;;;;;0.43;0.28;;;16.50;65.40;;;;;;5059926;28;20044;-19
2022/03/03 07:25:11;;;;;;;0.40;0.40;;;16.40;65.40;;;;;;5063839;28;20032;-20
2022/03/03 07:27:42;;;;;;;0.65;0.50;;;16.50;65.40;;;;;;5048617;28;20033;-19
2022/03/03 07:30:09;;;;;;;0.82;0.30;;;16.50;65.20;;;;;;5066456;28;20079;-19
2022/03/03 07:32:39;;;;;;;1.48;0.70;;;16.50;65.10;;;;;;5072828;28;20040;-19
2022/03/03 07:35:07;;;;;;;0.40;0.40;;;16.50;65.40;;;;;;5061170;28;20041;-19
2022/03/03 07:37:39;;;;;;;0.45;0.40;;;16.50;65.70;;;;;;5067976;28;20040;-19
2022/03/03 07:40:07;;;;;;;0.30;0.30;;;16.50;66.20;;;;;;5073796;28;20532;-19
2022/03/03 07:42:32;;;;;;;2.47;0.50;;;16.50;65.90;;;;;;5057481;28;20064;-19
2022/03/03 07:44:58;;;;;;;0.40;0.40;;;16.50;65.90;;;;;;5063257;28;20044;-20
2022/03/03 07:47:25;;;;;;;0.40;0.40;;;16.50;65.60;;;;;;5055155;28;20083;-19
2022/03/03 07:49:51;;;;;;;0.65;0.50;;;16.60;65.70;;;;;;5037081;28;20048;-19
2022/03/03 07:52:16;;;;;;;0.90;0.60;;;16.50;65.50;;;;;;5058904;28;20040;-19
2022/03/03 07:54:42;;;;;;;0.50;0.50;;;16.50;65.50;;;;;;5077203;28;20072;-19
2022/03/03 07:57:10;;;;;;;0.90;0.40;;;16.50;65.60;;;;;;5054107;28;20037;-19
2022/03/03 07:59:36;;;;;;;1.05;0.50;;;16.60;65.20;;;;;;5064216;28;20048;-19
2022/03/03 08:02:04;;;;;;;0.50;0.50;;;16.60;65.30;;;;;;5065584;28;20060;-20
2022/03/03 08:04:31;;;;;;;0.60;0.60;;;16.60;65.20;;;;;;5057943;28;20044;-19
2022/03/03 08:07:04;;;;;;;0.40;0.40;;;16.60;65.30;;;;;;5060135;28;20426;-20
2022/03/03 08:09:31;;;;;;;0.40;0.38;;;16.50;65.30;;;;;;5060588;28;20065;-19
2022/03/03 08:11:57;;;;;;;0.40;0.40;;;16.50;65.30;;;;;;5070563;28;20052;-20
2022/03/03 08:14:22;;;;;;;0.57;0.40;;;16.50;65.20;;;;;;5059466;28;20048;-19
2022/03/03 08:16:48;;;;;;;0.60;0.40;;;16.50;65.20;;;;;;5077423;28;20444;-19
2022/03/03 08:19:15;;;;;;;1.92;0.38;;;16.50;65.20;;;;;;5075394;28;20053;-19
2022/03/03 08:21:43;;;;;;;0.95;0.43;;;16.60;65.30;;;;;;5057297;28;20556;-19
2022/03/03 08:24:09;;;;;;;0.28;0.28;;;16.50;65.30;;;;;;5055129;28;20043;-19
2022/03/03 08:26:34;;;;;;;0.35;0.35;;;16.50;65.30;;;;;;5055890;28;20101;-19
2022/03/03 08:29:00;;;;;;;0.32;0.30;;;16.50;65.30;;;;;;5038615;28;20202;-19
2022/03/03 08:31:35;;;;;;;1.35;0.50;;;16.50;65.30;;;;;;5072426;28;20046;-20
2022/03/03 08:34:03;;;;;;;0.40;0.30;;;16.50;65.30;;;;;;5056342;28;20041;-19
2022/03/03 08:36:46;;;;;;;1.95;0.43;;;16.50;65.20;;;;;;5056901;28;20041;-19
2022/03/03 08:39:14;;;;;;;0.63;0.40;;;16.50;65.40;;;;;;5056456;28;20033;-19
2022/03/03 08:41:40;;;;;;;0.38;0.38;;;16.50;65.30;;;;;;5055512;28;20045;-19
2022/03/03 08:44:07;;;;;;;0.40;0.40;;;16.50;65.20;;;;;;5054191;28;20120;-19
2022/03/03 08:46:37;;;;;;;0.40;0.40;;;16.50;65.20;;;;;;5055479;28;20037;-19
2022/03/03 08:49:04;;;;;;;0.30;0.30;;;16.50;65.30;;;;;;5056223;28;20033;-19
2022/03/03 08:51:30;;;;;;;0.43;0.43;;;16.50;65.20;;;;;;5056547;28;20037;-19
2022/03/03 08:53:56;;;;;;;0.25;0.25;;;16.50;65.30;;;;;;5055264;28;20064;-21
2022/03/03 08:56:23;;;;;;;0.32;0.30;;;16.50;65.30;;;;;;5055783;28;20075;-22
2022/03/03 08:58:49;;;;;;;0.47;0.40;;;16.50;65.20;;;;;;5056478;28;20041;-21
2022/03/03 09:01:15;;;;;;;0.40;0.40;;;16.40;65.20;;;;;;5060437;28;20063;-21
2022/03/03 09:03:43;;;;;;;0.40;0.40;;;16.40;65.20;;;;;;5076681;28;20040;-21
2022/03/03 09:06:12;;;;;;;0.47;0.47;;;16.40;65.20;;;;;;5071992;28;20058;-22
2022/03/03 09:08:38;;;;;;;0.35;0.35;;;16.40;65.10;;;;;;5056479;28;20041;-21
2022/03/03 09:11:03;;;;;;;0.38;0.30;;;16.40;65.10;;;;;;5067046;28;20040;-22
2022/03/03 09:13:29;;;;;;;0.52;0.30;;;16.40;65.20;;;;;;5055144;28;20037;-21
2022/03/03 09:15:54;;;;;;;1.48;0.30;;;16.40;65.30;;;;;;5055622;28;20040;-21
2022/03/03 09:18:20;;;;;;;0.50;0.50;;;16.40;65.10;;;;;;5053954;28;20132;-21
2022/03/03 09:20:46;;;;;;;0.40;0.40;;;16.50;65.10;;;;;;5062778;28;20063;-21
2022/03/03 09:23:11;;;;;;;0.40;0.40;;;16.40;65.00;;;;;;5075501;28;20045;-21
2022/03/03 09:25:37;;;;;;;0.90;0.30;;;16.40;65.10;;;;;;5058125;28;20048;-21
2022/03/03 09:28:06;;;;;;;0.30;0.30;;;16.40;65.00;;;;;;5075329;28;20520;-21
2022/03/03 09:30:31;;;;;;;0.47;0.35;;;16.40;65.20;;;;;;5063786;28;20041;-21
2022/03/03 09:32:57;;;;;;;0.50;0.50;;;16.40;65.10;;;;;;5071521;28;20139;-21
2022/03/03 09:35:23;;;;;;;0.40;0.40;;;16.40;65.00;;;;;;5063194;28;20124;-21
2022/03/03 09:37:48;;;;;;;0.50;0.50;;;16.50;65.00;;;;;;5055740;28;20512;-21
2022/03/03 09:40:14;;;;;;;0.30;0.30;;;16.40;65.00;;;;;;5055130;28;20139;-19
2022/03/03 09:42:40;;;;;;;0.28;0.22;;;16.40;65.00;;;;;;5055443;28;20063;-19
2022/03/03 09:45:07;;;;;;;1.45;0.20;;;16.50;65.00;;;;;;5055094;28;20041;-20
2022/03/03 09:47:35;;;;;;;0.38;0.38;;;16.50;65.00;;;;;;5055829;28;20399;-19
2022/03/03 09:50:00;;;;;;;0.20;0.20;;;16.40;64.90;;;;;;5054630;28;20156;-19
2022/03/03 09:52:26;;;;;;;0.40;0.40;;;16.40;64.90;;;;;;5054003;28;20633;-19
2022/03/03 09:54:54;;;;;;;0.85;0.30;;;16.40;64.90;;;;;;5055560;28;20036;-19
2022/03/03 09:57:20;;;;;;;0.40;0.30;;;16.40;65.00;;;;;;5072792;28;20094;-19
2022/03/03 09:59:46;;;;;;;0.20;0.20;;;16.40;64.90;;;;;;5074231;28;20040;-19
2022/03/03 10:02:12;;;;;;;0.30;0.30;;;16.40;65.00;;;;;;5074525;28;20053;-19
2022/03/03 10:04:38;;;;;;;0.38;0.20;;;16.40;65.00;;;;;;5070235;28;20560;-19
2022/03/03 10:07:08;;;;;;;0.40;0.30;;;16.40;65.00;;;;;;5053422;28;20051;-21
2022/03/03 10:09:59;;;;;;;0.15;0.15;;;16.40;65.00;;;;;;5060092;28;20063;-19
2022/03/03 10:12:21;;;;;;;0.25;0.25;;;16.40;65.00;;;;;;5058329;28;20045;-19
2022/03/03 10:14:48;;;;;;;0.30;0.20;;;16.40;64.90;;;;;;5054007;28;20105;-19
2022/03/03 10:17:14;;;;;;;0.30;0.30;;;16.40;65.00;;;;;;5054739;28;20497;-19
2022/03/03 10:19:53;;;;;;;0.30;0.30;;;16.40;64.80;;;;;;5054045;28;20414;-19
2022/03/03 10:22:43;;;;;;;0.30;0.30;;;16.40;64.90;;;;;;5053425;28;20045;-19
2022/03/03 10:25:09;;;;;;;0.32;0.32;;;16.40;65.00;;;;;;5042365;28;20494;-19
2022/03/03 10:27:35;;;;;;;0.20;0.20;;;16.40;64.90;;;;;;5054785;28;20040;-19
2022/03/03 10:30:01;;;;;;;0.30;0.30;;;16.40;64.80;;;;;;5053199;28;20044;-19
2022/03/03 10:32:27;;;;;;;0.30;0.30;;;16.40;64.90;;;;;;5067189;28;20048;-19
2022/03/03 10:34:56;;;;;;;0.30;0.30;;;16.40;64.90;;;;;;5058195;28;20052;-19
2022/03/03 10:37:22;;;;;;;0.35;0.28;;;16.40;64.80;;;;;;5054323;28;20140;-20
2022/03/03 10:39:54;;;;;;;0.30;0.30;;;16.40;64.80;;;;;;5053879;28;20118;-19
2022/03/03 10:42:21;;;;;;;0.82;0.20;;;16.40;64.80;;;;;;5054272;28;20063;-19
2022/03/03 10:44:48;;;;;;;0.20;0.20;;;16.40;64.70;;;;;;5053563;28;20041;-19
2022/03/03 10:47:18;;;;;;;0.22;0.22;;;16.40;64.80;;;;;;5053034;28;20045;-19
2022/03/03 10:49:49;;;;;;;0.38;0.38;;;16.40;64.70;;;;;;5053732;28;20051;-19
2022/03/03 10:52:22;;;;;;;0.20;0.20;;;16.40;64.70;;;;;;5054256;28;20123;-19
2022/03/03 10:54:51;;;;;;;0.52;0.40;;;16.40;64.70;;;;;;5053704;28;20040;-18
2022/03/03 10:57:32;;;;;;;0.93;0.30;;;16.40;64.70;;;;;;5053771;28;20112;-22
2022/03/03 10:59:59;;;;;;;0.30;0.30;;;16.40;64.80;;;;;;5054108;28;20079;-21
2022/03/03 11:02:28;;;;;;;0.30;0.30;;;16.40;64.70;;;;;;5072213;28;21004;-21
2022/03/03 11:04:57;;;;;;;0.40;0.30;;;16.40;64.70;;;;;;5074707;28;20048;-21
2022/03/03 11:07:23;;;;;;;0.85;0.13;;;16.40;64.70;;;;;;5056610;28;20102;-21
2022/03/03 11:09:51;;;;;;;0.40;0.40;;;16.40;64.80;;;;;;5065448;28;20123;-21
2022/03/03 11:12:18;;;;;;;0.30;0.30;;;16.40;64.70;;;;;;5060159;28;20136;-21
2022/03/03 11:14:44;;;;;;;0.20;0.20;;;16.40;64.60;;;;;;5058451;28;20041;-21
2022/03/03 11:17:10;;;;;;;0.40;0.20;;;16.40;64.60;;;;;;5056272;28;20048;-21
2022/03/03 11:19:37;;;;;;;0.28;0.22;;;16.40;64.70;;;;;;5062520;28;20409;-21
2022/03/03 11:22:03;;;;;;;0.50;0.50;;;16.40;64.80;;;;;;5078209;28;20048;-21
2022/03/03 11:24:29;;;;;;;0.40;0.30;;;16.40;64.70;;;;;;5076488;28;20547;-21
2022/03/03 11:26:54;;;;;;;0.20;0.20;;;16.40;64.60;;;;;;5057999;28;20854;-21
2022/03/03 11:29:20;;;;;;;0.45;0.20;;;16.40;64.70;;;;;;5056007;28;20061;-19
2022/03/03 11:32:05;;;;;;;0.22;0.10;;;16.40;64.70;;;;;;5064657;28;20383;-18
2022/03/03 11:34:32;;;;;;;0.20;0.20;;;16.40;64.60;;;;;;5077646;28;20119;-19
2022/03/03 11:37:12;;;;;;;0.20;0.20;;;16.40;64.70;;;;;;5069631;28;20045;-19
2022/03/03 11:39:42;;;;;;;0.47;0.47;;;16.40;64.80;;;;;;5056174;28;20079;-18
2022/03/03 11:42:35;;;;;;;0.25;0.25;;;16.40;64.60;;;;;;5056128;28;20066;-19
2022/03/03 11:45:08;;;;;;;0.30;0.30;;;16.40;64.70;;;;;;5057667;28;20124;-18
2022/03/03 11:47:35;;;;;;;0.30;0.30;;;16.40;64.80;;;;;;5057591;28;20048;-19
2022/03/03 11:50:02;;;;;;;0.25;0.22;;;16.40;64.80;;;;;;5056638;28;20033;-18
2022/03/03 11:52:28;;;;;;;1.10;0.20;;;16.40;64.80;;;;;;5056993;28;20175;-18
2022/03/03 11:54:56;;;;;;;0.30;0.20;;;16.40;64.80;;;;;;5056166;28;20069;-18
2022/03/03 11:57:23;;;;;;;0.40;0.22;;;16.40;64.80;;;;;;5056726;28;20128;-18
2022/03/03 11:59:49;;;;;;;0.25;0.25;;;16.40;64.80;;;;;;5075951;28;20528;-18
2022/03/03 12:02:18;;;;;;;0.30;0.30;;;16.40;64.80;;;;;;5075803;28;20048;-19
2022/03/03 12:04:44;;;;;;;0.22;0.22;;;16.40;64.80;;;;;;5076902;28;20044;-19
2022/03/03 12:07:29;;;;;;;0.30;0.30;;;16.40;64.80;;;;;;5075594;28;20048;-19
2022/03/03 12:09:56;;;;;;;0.17;0.17;;;16.40;64.70;;;;;;5076169;28;20043;-18
2022/03/03 12:12:24;;;;;;;0.25;0.22;;;16.40;64.80;;;;;;5065164;28;20142;-18
2022/03/03 12:14:58;;;;;;;0.32;0.32;;;16.40;64.80;;;;;;5059564;28;20040;-18
2022/03/03 12:17:42;;;;;;;0.35;0.30;;;16.40;64.80;;;;;;5070204;28;20041;-18
2022/03/03 12:20:35;;;;;;;0.25;0.20;;;16.40;64.80;;;;;;5055479;28;20049;-18
2022/03/03 12:23:07;;;;;;;0.30;0.30;;;16.40;64.80;;;;;;5057012;28;20055;-19
2022/03/03 12:25:54;;;;;;;0.22;0.22;;;16.40;64.80;;;;;;5056775;28;20509;-18
2022/03/03 12:28:43;;;;;;;0.30;0.30;;;16.40;64.70;;;;;;5056432;28;20049;-19
2022/03/03 12:31:19;;;;;;;0.17;0.17;;;16.30;64.70;;;;;;5056302;28;20041;-18
2022/03/03 12:33:57;;;;;;;0.22;0.22;;;16.40;64.80;;;;;;5066923;28;20080;-19
2022/03/03 12:36:23;;;;;;;0.20;0.20;;;16.40;64.80;;;;;;5055202;28;20391;-19
2022/03/03 12:38:48;;;;;;;0.30;0.30;;;16.40;64.80;;;;;;5055562;28;20049;-19
2022/03/03 12:41:14;;;;;;;0.25;0.25;;;16.40;64.80;;;;;;5056607;28;20069;-19
2022/03/03 12:43:41;;;;;;;0.20;0.20;;;16.30;64.70;;;;;;5055203;28;20528;-19
2022/03/03 12:46:07;;;;;;;0.13;0.13;;;16.30;64.80;;;;;;5055756;28;20370;-18